URWW

Volgograd International Airport

Volgograd, Russian Federation
TAF URWW 151059Z 1512/1521 12003G08MPS 9999 SCT040 TEMPO 1512/1521 08005G10MPS
Issued Valid From Valid To
Aug-15 @ 10:59 UTC
(2 hours ago)
Aug-15 @ 12:00 UTC
(41 minutes ago)
Aug-15 @ 21:00 UTC
(in 8 hours)
Aug-15 @ 12:00 to Aug-15 @ 21:00
TAF URWW 151059Z 1512/1521 12003G08MPS 9999 SCT040
Wind Visibility Clouds
120° at 6 knots
 Gusting to 16 knots
10,000+ meters
  • Scattered at 4,000' AGL
Temporary Aug-15 @ 12:00 to Aug-15 @ 21:00
TEMPO 1512/1521 08005G10MPS
Wind
80° at 10 knots
 Gusting to 19 knots
TAF URWW 151059Z 1512/1521 12003G08MPS 9999 SCT040 TEMPO 1512/1521 08005G10MPS
Issued Aug-15 @ 10:59 UTC
(2 hours ago)
Valid From Aug-15 @ 12:00 UTC
(41 minutes ago)
Valid To Aug-15 @ 21:00 UTC
(in 8 hours)
Aug-15 @ 12:00 - Aug-15 @ 21:00
Wind Visibility
120° at 6 knots
 Gusting to 16 knots
10,000+ meters
Clouds
  • Scattered at 4,000' AGL
Temporary Aug-15 @ 12:00 - Aug-15 @ 21:00
Wind
80° at 10 knots
 Gusting to 19 knots